createdAt,value
2019-04-14T00:02:14.891Z,15.83
2019-04-14T00:04:48.622Z,24.73
2019-04-14T00:07:18.742Z,45.33
2019-04-14T00:09:48.038Z,22.20
2019-04-14T00:12:18.675Z,20.97
2019-04-14T00:14:49.097Z,29.83
2019-04-14T00:17:19.418Z,22.97
2019-04-14T00:19:50.107Z,21.23
2019-04-14T00:22:20.517Z,16.50
2019-04-14T00:24:51.005Z,19.67
2019-04-14T00:27:21.451Z,18.67
2019-04-14T00:29:50.747Z,16.30
2019-04-14T00:32:20.523Z,18.60
2019-04-14T00:35:08.430Z,23.77
2019-04-14T00:37:46.631Z,28.17
2019-04-14T00:40:29.617Z,22.27
2019-04-14T00:43:11.910Z,25.70
2019-04-14T00:46:01.383Z,17.13
2019-04-14T00:48:32.021Z,17.73
2019-04-14T00:51:02.668Z,15.67
2019-04-14T00:53:32.115Z,20.47
2019-04-14T00:56:01.992Z,22.47
2019-04-14T00:58:32.204Z,16.03
2019-04-14T01:01:02.698Z,17.27
2019-04-14T01:03:33.054Z,19.03
2019-04-14T01:06:03.186Z,20.43
2019-04-14T01:08:33.450Z,23.43
2019-04-14T01:11:03.137Z,22.17
2019-04-14T01:13:33.282Z,16.97
2019-04-14T01:16:08.929Z,16.33
2019-04-14T01:18:34.061Z,18.73
2019-04-14T01:21:04.594Z,20.17
2019-04-14T01:23:34.798Z,20.50
2019-04-14T01:26:05.051Z,22.63
2019-04-14T01:28:35.440Z,17.73
2019-04-14T01:31:05.503Z,18.17
2019-04-14T01:33:35.836Z,17.47
2019-04-14T01:36:06.103Z,19.37
2019-04-14T01:38:36.452Z,19.67
2019-04-14T01:41:06.439Z,17.33
2019-04-14T01:43:36.415Z,19.60
2019-04-14T01:46:14.396Z,22.40
2019-04-14T01:48:36.809Z,18.23
2019-04-14T01:51:25.101Z,20.07
2019-04-14T01:54:17.092Z,17.07
2019-04-14T01:56:58.218Z,18.60
2019-04-14T01:59:28.360Z,15.47
2019-04-14T02:01:58.682Z,10.90
2019-04-14T02:04:28.835Z,15.03
2019-04-14T02:06:59.191Z,15.57
2019-04-14T02:09:29.488Z,18.93
2019-04-14T02:11:59.510Z,16.77
2019-04-14T02:14:30.037Z,15.50
2019-04-14T02:17:02.535Z,12.80
2019-04-14T02:19:30.662Z,15.13
2019-04-14T02:22:00.676Z,13.27
2019-04-14T02:24:30.979Z,13.83
2019-04-14T02:27:01.265Z,14.67
2019-04-14T02:29:31.905Z,16.67
2019-04-14T02:32:37.271Z,11.60
2019-04-14T02:35:00.229Z,14.50
2019-04-14T02:37:31.879Z,15.63
2019-04-14T02:40:00.774Z,15.10
2019-04-14T02:42:36.668Z,16.60
2019-04-14T02:45:00.226Z,16.80
2019-04-14T02:50:17.604Z,15.27
2019-04-14T02:52:47.292Z,15.53
2019-04-14T02:55:04.495Z,15.67
2019-04-14T03:00:11.614Z,20.27
2019-04-14T03:02:38.900Z,13.77
2019-04-14T03:10:12.582Z,17.63
2019-04-14T03:12:48.805Z,17.33
2019-04-14T03:15:16.464Z,20.57
2019-04-14T03:23:33.147Z,15.17
2019-04-14T03:26:05.065Z,20.53
2019-04-14T03:28:40.278Z,18.90
2019-04-14T03:36:44.630Z,20.33
2019-04-14T03:38:53.312Z,17.27
2019-04-14T03:43:41.565Z,15.77
2019-04-14T03:56:33.465Z,17.93
2019-04-14T03:59:04.119Z,17.77
2019-04-14T04:01:34.538Z,15.90
2019-04-14T04:04:05.257Z,15.53
2019-04-14T04:06:35.593Z,15.00
2019-04-14T04:09:06.384Z,18.87
2019-04-14T04:11:36.645Z,17.70
2019-04-14T04:14:07.327Z,15.53
2019-04-14T04:16:52.908Z,16.10
2019-04-14T04:19:27.719Z,15.77
2019-04-14T04:22:15.046Z,16.13
2019-04-14T04:24:50.000Z,16.47
2019-04-14T04:27:56.913Z,14.00
2019-04-14T04:30:45.263Z,21.97
2019-04-14T04:33:19.887Z,18.60
2019-04-14T04:35:52.879Z,18.00
2019-04-14T04:38:29.439Z,18.87
2019-04-14T04:40:59.405Z,17.63
2019-04-14T04:43:29.759Z,19.63
2019-04-14T04:45:59.099Z,20.07
2019-04-14T04:48:28.554Z,17.83
2019-04-14T04:50:58.584Z,18.60
2019-04-14T04:53:28.783Z,17.77
2019-04-14T04:55:59.313Z,16.67
2019-04-14T04:58:30.510Z,17.23
2019-04-14T05:01:01.298Z,17.00
2019-04-14T05:03:31.823Z,16.50
2019-04-14T05:06:50.520Z,17.83
2019-04-14T05:09:29.572Z,17.20
2019-04-14T05:12:13.249Z,15.83
2019-04-14T05:14:47.946Z,17.97
2019-04-14T05:17:19.092Z,16.93
2019-04-14T05:19:49.652Z,14.03
2019-04-14T05:22:20.735Z,12.97
2019-04-14T05:24:50.772Z,15.53
2019-04-14T05:27:21.081Z,12.13
2019-04-14T05:29:51.478Z,13.50
2019-04-14T05:32:21.613Z,10.50
2019-04-14T05:34:52.103Z,16.27
2019-04-14T05:37:22.495Z,11.33
2019-04-14T05:39:52.692Z,11.97
2019-04-14T05:42:25.331Z,21.83
2019-04-14T05:44:53.591Z,16.67
2019-04-14T05:47:23.829Z,9.53
2019-04-14T05:49:56.118Z,14.93
2019-04-14T05:52:25.184Z,10.30
2019-04-14T05:54:55.701Z,12.53
2019-04-14T05:57:26.226Z,10.00
2019-04-14T05:59:56.931Z,14.43
2019-04-14T06:02:28.884Z,10.70
2019-04-14T06:04:57.382Z,10.00
2019-04-14T06:07:26.689Z,9.47
2019-04-14T06:09:56.054Z,9.87
2019-04-14T06:12:25.266Z,9.07
2019-04-14T06:14:54.637Z,8.93
2019-04-14T06:17:24.121Z,10.67
2019-04-14T06:19:53.429Z,11.27
2019-04-14T06:22:22.709Z,8.47
2019-04-14T06:24:51.977Z,9.13
2019-04-14T06:27:22.131Z,6.73
2019-04-14T06:29:53.437Z,8.07
2019-04-14T06:32:41.787Z,13.23
2019-04-14T06:35:29.041Z,8.70
2019-04-14T06:38:01.161Z,10.97
2019-04-14T06:40:52.329Z,8.63
2019-04-14T06:43:21.632Z,8.47
2019-04-14T06:45:50.893Z,7.33
2019-04-14T06:48:20.288Z,9.93
2019-04-14T06:50:49.589Z,8.60
2019-04-14T06:53:18.944Z,8.20
2019-04-14T06:55:48.207Z,9.97
2019-04-14T06:58:17.670Z,8.30
2019-04-14T07:00:47.337Z,16.67
2019-04-14T07:03:16.628Z,11.27
2019-04-14T07:05:45.993Z,8.73
2019-04-14T07:08:15.321Z,10.03
2019-04-14T07:10:44.648Z,6.70
2019-04-14T07:13:14.112Z,7.10
2019-04-14T07:15:43.477Z,10.23
2019-04-14T07:18:13.096Z,6.83
2019-04-14T07:20:42.400Z,10.70
2019-04-14T07:23:11.660Z,7.47
2019-04-14T07:25:41.091Z,7.73
2019-04-14T07:28:10.528Z,8.23
2019-04-14T07:31:03.914Z,12.10
2019-04-14T07:33:45.900Z,8.10
2019-04-14T07:36:26.864Z,5.70
2019-04-14T07:39:07.603Z,6.53
2019-04-14T07:41:43.796Z,6.53
2019-04-14T07:44:31.836Z,8.50
2019-04-14T07:47:10.652Z,5.93
2019-04-14T07:50:14.511Z,8.17
2019-04-14T07:53:16.493Z,6.57
2019-04-14T07:55:59.935Z,6.10
2019-04-14T07:58:51.291Z,6.47
2019-04-14T08:01:27.505Z,12.17
2019-04-14T08:04:33.983Z,8.37
2019-04-14T08:07:03.253Z,7.37
2019-04-14T08:09:32.632Z,6.33
2019-04-14T08:12:02.032Z,5.80
2019-04-14T08:14:31.311Z,7.67
2019-04-14T08:17:00.639Z,5.77
2019-04-14T08:19:29.939Z,7.13
2019-04-14T08:21:59.291Z,6.17
2019-04-14T08:24:28.602Z,5.17
2019-04-14T08:26:57.927Z,8.87
2019-04-14T08:29:27.235Z,6.37
2019-04-14T08:31:56.728Z,5.00
2019-04-14T08:34:25.983Z,6.83
2019-04-14T08:36:55.280Z,5.60
2019-04-14T08:39:24.647Z,5.43
2019-04-14T08:42:05.461Z,5.13
2019-04-14T08:44:40.559Z,6.30
2019-04-14T08:47:44.002Z,8.33
2019-04-14T08:50:39.385Z,4.80
2019-04-14T08:53:12.923Z,7.40
2019-04-14T08:55:54.858Z,7.80
2019-04-14T08:58:40.178Z,5.00
2019-04-14T09:01:17.570Z,5.17
2019-04-14T09:03:59.451Z,5.87
2019-04-14T09:06:56.938Z,6.30
2019-04-14T09:09:51.246Z,5.90
2019-04-14T09:12:29.250Z,6.13
2019-04-14T09:14:58.603Z,4.63
2019-04-14T09:17:29.682Z,5.30
2019-04-14T09:19:58.946Z,6.10
2019-04-14T09:22:28.253Z,5.60
2019-04-14T09:24:57.641Z,6.67
2019-04-14T09:27:27.218Z,5.43
2019-04-14T09:29:56.505Z,5.27
2019-04-14T09:32:26.778Z,4.57
2019-04-14T09:34:56.513Z,5.63
2019-04-14T09:37:25.805Z,5.67
2019-04-14T09:39:55.068Z,4.13
2019-04-14T09:42:24.452Z,7.00
2019-04-14T09:44:53.733Z,6.80
2019-04-14T09:47:23.002Z,4.40
2019-04-14T09:49:52.390Z,5.37
2019-04-14T09:52:21.581Z,7.60
2019-04-14T09:54:50.874Z,4.20
2019-04-14T09:57:20.337Z,6.63
2019-04-14T09:59:50.581Z,10.30
2019-04-14T10:02:19.865Z,6.00
2019-04-14T10:04:49.253Z,6.60
2019-04-14T10:07:18.595Z,6.47
2019-04-14T10:09:47.981Z,9.23
2019-04-14T10:12:17.681Z,4.97
2019-04-14T10:14:46.962Z,5.83
2019-04-14T10:17:16.293Z,8.40
2019-04-14T10:19:45.629Z,5.83
2019-04-14T10:22:14.965Z,5.13
2019-04-14T10:24:44.253Z,5.47
2019-04-14T10:27:14.408Z,8.93
2019-04-14T10:29:43.732Z,8.00
2019-04-14T10:32:13.044Z,8.30
2019-04-14T10:34:42.605Z,9.67
2019-04-14T10:37:11.921Z,8.77
2019-04-14T10:39:41.341Z,6.30
2019-04-14T10:42:10.620Z,6.67
2019-04-14T10:44:40.127Z,7.40
2019-04-14T10:47:09.420Z,5.87
2019-04-14T10:49:38.816Z,9.37
2019-04-14T10:52:08.173Z,5.97
2019-04-14T10:54:37.546Z,6.13
2019-04-14T10:57:06.972Z,4.73
2019-04-14T10:59:36.233Z,6.77
2019-04-14T11:02:05.696Z,5.83
2019-04-14T11:04:34.968Z,11.50
2019-04-14T11:07:14.345Z,5.47
2019-04-14T11:09:43.648Z,6.37
2019-04-14T11:12:12.984Z,4.97
2019-04-14T11:14:42.289Z,7.73
2019-04-14T11:17:11.584Z,7.97
2019-04-14T11:19:41.040Z,7.17
2019-04-14T11:22:10.444Z,7.87
2019-04-14T11:24:39.773Z,8.03
2019-04-14T11:27:09.379Z,5.33
2019-04-14T11:29:38.720Z,5.10
2019-04-14T11:32:36.136Z,7.90
2019-04-14T11:35:19.754Z,4.90
2019-04-14T11:37:57.996Z,4.60
2019-04-14T11:40:30.816Z,7.27
2019-04-14T11:43:00.139Z,8.17
2019-04-14T11:45:29.521Z,6.03
2019-04-14T11:47:58.865Z,6.73
2019-04-14T11:50:28.264Z,5.27
2019-04-14T11:52:57.542Z,5.23
2019-04-14T11:55:26.904Z,6.50
2019-04-14T11:57:56.319Z,8.13
2019-04-14T12:00:53.968Z,6.90
2019-04-14T12:03:39.259Z,7.57
2019-04-14T12:06:23.541Z,5.93
2019-04-14T12:08:58.168Z,4.97
2019-04-14T12:11:27.559Z,4.63
2019-04-14T12:13:56.983Z,4.57
2019-04-14T12:16:26.341Z,4.87
2019-04-14T12:18:55.611Z,4.47
2019-04-14T12:21:24.990Z,4.17
2019-04-14T12:23:54.656Z,3.87
2019-04-14T12:26:24.059Z,4.77
2019-04-14T12:28:53.700Z,4.93
2019-04-14T12:31:24.111Z,3.90
2019-04-14T12:33:53.955Z,4.10
2019-04-14T12:36:23.328Z,5.37
2019-04-14T12:38:52.594Z,4.23
2019-04-14T12:41:31.087Z,3.83
2019-04-14T12:44:30.179Z,6.10
2019-04-14T12:47:09.387Z,5.73
2019-04-14T12:49:41.166Z,4.93
2019-04-14T12:52:22.211Z,4.37
2019-04-14T12:54:51.503Z,3.33
2019-04-14T12:57:32.249Z,4.67
2019-04-14T13:00:01.623Z,6.53
2019-04-14T13:02:34.299Z,4.70
2019-04-14T13:05:04.220Z,8.20
2019-04-14T13:07:33.615Z,5.73
2019-04-14T13:10:02.966Z,5.20
2019-04-14T13:12:32.338Z,4.37
2019-04-14T13:15:02.948Z,4.37
2019-04-14T13:17:32.439Z,3.80
2019-04-14T13:20:01.770Z,4.70
2019-04-14T13:22:34.159Z,3.30
2019-04-14T13:25:02.478Z,3.00
2019-04-14T13:27:31.822Z,3.73
2019-04-14T13:30:01.205Z,3.63
2019-04-14T13:32:36.275Z,5.60
2019-04-14T13:35:01.610Z,5.40
2019-04-14T13:37:30.912Z,3.83
2019-04-14T13:40:00.217Z,6.20
2019-04-14T13:42:29.577Z,4.33
2019-04-14T13:44:58.875Z,3.63
2019-04-14T13:47:28.260Z,9.83
2019-04-14T13:49:57.682Z,3.93
2019-04-14T13:52:27.026Z,4.13
2019-04-14T13:54:56.390Z,4.23
2019-04-14T13:57:25.805Z,8.27
2019-04-14T13:59:55.089Z,2.57
2019-04-14T14:02:24.505Z,2.67
2019-04-14T14:04:54.018Z,3.73
2019-04-14T14:07:23.362Z,4.00
2019-04-14T14:09:52.690Z,4.90
2019-04-14T14:12:29.625Z,4.10
2019-04-14T14:15:24.605Z,5.20
2019-04-14T14:18:12.914Z,4.00
2019-04-14T14:20:59.632Z,4.33
2019-04-14T14:23:56.612Z,4.70
2019-04-14T14:26:27.336Z,3.10
2019-04-14T14:28:56.726Z,3.57
2019-04-14T14:31:26.136Z,3.57
2019-04-14T14:33:55.440Z,4.90
2019-04-14T14:36:24.822Z,3.63
2019-04-14T14:38:54.196Z,4.67
2019-04-14T14:41:23.492Z,2.77
2019-04-14T14:43:52.859Z,2.77
2019-04-14T14:46:37.081Z,3.77
2019-04-14T14:49:24.328Z,5.47
2019-04-14T14:52:03.964Z,3.13
2019-04-14T14:54:33.257Z,5.90
2019-04-14T14:57:02.657Z,5.53
2019-04-14T14:59:31.937Z,3.97
2019-04-14T15:02:01.288Z,3.97
2019-04-14T15:04:30.618Z,4.20
2019-04-14T15:06:59.993Z,2.93
2019-04-14T15:09:29.388Z,6.50
2019-04-14T15:11:58.785Z,6.10
2019-04-14T15:14:28.176Z,6.80
2019-04-14T15:16:57.676Z,3.57
2019-04-14T15:19:27.029Z,4.33
2019-04-14T15:21:56.340Z,2.70
2019-04-14T15:24:25.714Z,4.17
2019-04-14T15:26:55.021Z,4.93
2019-04-14T15:29:24.335Z,4.17
2019-04-14T15:31:53.724Z,4.60
2019-04-14T15:34:23.216Z,4.93
2019-04-14T15:36:52.524Z,4.93
2019-04-14T15:39:21.895Z,3.23
2019-04-14T15:41:51.227Z,5.07
2019-04-14T15:44:20.672Z,3.73
2019-04-14T15:46:50.048Z,5.03
2019-04-14T15:49:19.352Z,5.87
2019-04-14T15:51:48.949Z,2.67
2019-04-14T15:54:19.827Z,4.87
2019-04-14T15:57:03.731Z,7.20
2019-04-14T16:00:09.052Z,7.00
2019-04-14T16:03:01.767Z,8.00
2019-04-14T16:05:43.064Z,4.27
2019-04-14T16:08:22.700Z,4.77
2019-04-14T16:10:55.475Z,5.43
2019-04-14T16:13:44.264Z,4.83
2019-04-14T16:16:38.760Z,3.00
2019-04-14T16:19:13.267Z,3.67
2019-04-14T16:21:42.571Z,3.70
2019-04-14T16:24:11.939Z,3.90
2019-04-14T16:26:46.687Z,5.07
2019-04-14T16:29:30.023Z,3.37
2019-04-14T16:32:08.135Z,8.87
2019-04-14T16:34:50.211Z,6.30
2019-04-14T16:37:19.571Z,6.43
2019-04-14T16:39:48.958Z,9.93
2019-04-14T16:42:18.328Z,5.93
2019-04-14T16:44:47.627Z,5.83
2019-04-14T16:47:16.881Z,7.57
2019-04-14T16:49:46.199Z,11.97
2019-04-14T16:52:33.251Z,5.60
2019-04-14T16:55:29.675Z,9.40
2019-04-14T16:58:19.971Z,9.30
2019-04-14T17:01:14.351Z,7.30
2019-04-14T17:03:43.907Z,8.77
2019-04-14T17:06:13.111Z,10.57
2019-04-14T17:08:42.515Z,10.20
2019-04-14T17:11:11.771Z,9.13
2019-04-14T17:13:43.634Z,9.70
2019-04-14T17:16:30.931Z,7.13
2019-04-14T17:19:19.400Z,6.53
2019-04-14T17:21:55.803Z,9.33
2019-04-14T17:24:56.557Z,8.27
2019-04-14T17:27:37.707Z,12.83
2019-04-14T17:30:15.208Z,8.60
2019-04-14T17:33:03.582Z,8.67
2019-04-14T17:35:50.728Z,6.40
2019-04-14T17:38:35.206Z,8.70
2019-04-14T17:41:11.930Z,10.67
2019-04-14T17:44:03.194Z,9.70
2019-04-14T17:46:50.246Z,10.53
2019-04-14T17:49:44.569Z,7.27
2019-04-14T17:52:31.822Z,7.67
2019-04-14T17:55:05.733Z,12.10
2019-04-14T17:57:52.417Z,13.40
2019-04-14T18:00:30.581Z,13.27
2019-04-14T18:03:15.721Z,14.77
2019-04-14T18:05:51.394Z,15.30
2019-04-14T18:08:42.530Z,10.27
2019-04-14T18:11:30.889Z,10.50
2019-04-14T18:14:19.185Z,11.27
2019-04-14T18:17:15.653Z,9.03
2019-04-14T18:19:51.704Z,8.43
2019-04-14T18:22:21.009Z,10.23
2019-04-14T18:24:50.366Z,9.20
2019-04-14T18:27:19.773Z,9.87
2019-04-14T18:29:57.855Z,11.80
2019-04-14T18:32:55.057Z,9.17
2019-04-14T18:35:48.917Z,6.67
2019-04-14T18:38:36.045Z,7.30
2019-04-14T18:41:12.057Z,7.77
2019-04-14T18:43:48.119Z,8.43
2019-04-14T18:46:34.865Z,6.27
2019-04-14T18:49:13.092Z,18.87
2019-04-14T18:51:56.929Z,8.57
2019-04-14T18:54:32.368Z,12.97
2019-04-14T18:57:15.288Z,12.67
2019-04-14T18:59:49.268Z,13.27
2019-04-14T19:02:19.997Z,11.97
2019-04-14T19:04:49.304Z,11.73
2019-04-14T19:07:21.099Z,11.10
2019-04-14T19:09:50.408Z,9.83
2019-04-14T19:12:37.312Z,10.17
2019-04-14T19:15:16.013Z,11.63
2019-04-14T19:17:55.020Z,15.47
2019-04-14T19:20:24.294Z,11.20
2019-04-14T19:22:53.679Z,7.63
2019-04-14T19:25:23.059Z,12.03
2019-04-14T19:27:52.460Z,6.90
2019-04-14T19:30:21.899Z,10.53
2019-04-14T19:32:51.235Z,6.77
2019-04-14T19:35:20.538Z,10.03
2019-04-14T19:37:49.782Z,6.43
2019-04-14T19:40:19.162Z,7.47
2019-04-14T19:42:48.440Z,7.10
2019-04-14T19:45:17.702Z,9.77
2019-04-14T19:47:49.057Z,9.47
2019-04-14T19:50:18.311Z,11.17
2019-04-14T19:52:47.694Z,8.33
2019-04-14T19:55:20.640Z,9.20
2019-04-14T19:57:47.868Z,6.30
2019-04-14T20:00:17.469Z,8.23
2019-04-14T20:02:46.846Z,9.70
2019-04-14T20:05:16.134Z,10.93
2019-04-14T20:07:45.538Z,10.03
2019-04-14T20:10:15.172Z,9.03
2019-04-14T20:12:44.436Z,8.10
2019-04-14T20:15:16.791Z,8.23
2019-04-14T20:18:14.413Z,10.87
2019-04-14T20:20:56.758Z,12.47
2019-04-14T20:23:42.887Z,8.67
2019-04-14T20:26:29.907Z,7.00
2019-04-14T20:29:06.623Z,10.03
2019-04-14T20:31:41.063Z,9.60
2019-04-14T20:34:10.459Z,8.53
2019-04-14T20:36:39.859Z,11.00
2019-04-14T20:39:13.263Z,5.90
2019-04-14T20:41:44.389Z,8.33
2019-04-14T20:44:14.010Z,12.23
2019-04-14T20:46:43.319Z,8.80
2019-04-14T20:49:12.667Z,10.17
2019-04-14T20:51:42.955Z,9.40
2019-04-14T20:54:12.323Z,5.60
2019-04-14T20:56:41.743Z,5.63
2019-04-14T20:59:11.114Z,6.27
2019-04-14T21:01:44.214Z,6.53
2019-04-14T21:04:33.070Z,7.77
2019-04-14T21:07:21.430Z,8.97
2019-04-14T21:10:07.879Z,8.10
2019-04-14T21:13:08.490Z,7.50
2019-04-14T21:15:47.254Z,7.60
2019-04-14T21:18:38.400Z,7.33
2019-04-14T21:21:38.962Z,6.97
2019-04-14T21:24:31.542Z,9.33
2019-04-14T21:27:37.882Z,8.17
2019-04-14T21:30:25.006Z,14.87
2019-04-14T21:33:19.270Z,8.50
2019-04-14T21:35:52.534Z,7.50
2019-04-14T21:38:39.894Z,10.33
2019-04-14T21:41:29.584Z,11.83
2019-04-14T21:43:58.958Z,7.00
2019-04-14T21:46:28.414Z,8.33
2019-04-14T21:48:57.780Z,14.23
2019-04-14T21:51:46.134Z,14.83
2019-04-14T21:54:15.826Z,9.60
2019-04-14T21:56:46.734Z,11.83
2019-04-14T21:59:21.126Z,14.90
2019-04-14T22:02:24.674Z,13.67
2019-04-14T22:05:12.169Z,8.97
2019-04-14T22:07:46.525Z,12.93
2019-04-14T22:10:43.545Z,10.07
2019-04-14T22:13:12.234Z,9.30
2019-04-14T22:15:41.090Z,13.00
2019-04-14T22:18:09.924Z,11.20
2019-04-14T22:20:38.724Z,16.33
2019-04-14T22:23:11.625Z,15.83
2019-04-14T22:25:40.465Z,17.33
2019-04-14T22:28:09.551Z,15.00
2019-04-14T22:30:38.261Z,12.87
2019-04-14T22:33:07.119Z,10.07
2019-04-14T22:35:35.911Z,13.17
2019-04-14T22:38:04.824Z,14.67
2019-04-14T22:40:33.661Z,10.60
2019-04-14T22:43:02.587Z,22.07
2019-04-14T22:45:31.409Z,17.10
2019-04-14T22:48:00.125Z,9.87
2019-04-14T22:50:28.951Z,13.70
2019-04-14T22:52:57.756Z,13.83
2019-04-14T22:55:26.437Z,20.77
2019-04-14T22:57:55.186Z,14.00
2019-04-14T23:00:46.441Z,15.57
2019-04-14T23:03:40.394Z,18.50
2019-04-14T23:06:19.966Z,16.60
2019-04-14T23:08:55.798Z,17.00
2019-04-14T23:11:43.618Z,13.00
2019-04-14T23:14:18.514Z,14.67
2019-04-14T23:17:15.522Z,18.60
2019-04-14T23:20:09.506Z,14.30
2019-04-14T23:23:06.385Z,18.53
2019-04-14T23:25:35.654Z,10.30
2019-04-14T23:28:04.415Z,9.50
2019-04-14T23:30:33.249Z,15.63
2019-04-14T23:33:02.030Z,16.83
2019-04-14T23:35:31.615Z,16.67
2019-04-14T23:38:00.931Z,9.40
2019-04-14T23:40:30.253Z,14.53
2019-04-14T23:42:59.522Z,9.97
2019-04-14T23:45:29.572Z,9.37
2019-04-14T23:47:58.836Z,11.53
2019-04-14T23:50:28.142Z,8.00
2019-04-14T23:52:57.395Z,8.63
2019-04-14T23:55:26.630Z,10.07
2019-04-14T23:57:55.920Z,8.73
